VSV694 UNOO-UACC
Flight info
| Callsign | VSV694 |
|---|---|
| Flight time | 0h 50m |
| Altitude | 35000 |
| Route | ALODA6D ALODA N990 DAKIN M75 AMOLA/K0776F340 M75 OLGAS OLGAS4N |
| Aircraft | B738/M-SDE2E3FGHIRWXY/LB1 |
Departure
| Time | 2026-04-25 09:48 |
|---|---|
| Airport | Omsk Central Airport (UNOO) |
Arrival
| Time | 2026-04-25 10:38 |
|---|---|
| Airport | Nursultan Nazarbayev International Airport (UACC) |
| Time | Latitude | Longitude | Altitude | Speed | Heading |
|---|---|---|---|---|---|
| 2026-04-25 09:19 | 54.96307 | 73.31945 | 297 ft | 0 kts | 137° |
| 2026-04-25 09:26 | 54.96307 | 73.31944 | 297 ft | 0 kts | 137° |
| 2026-04-25 09:42 | 54.96305 | 73.31947 | 297 ft | 1 kts | 137° |
| 2026-04-25 09:42 | 54.96289 | 73.31972 | 299 ft | 5 kts | 136° |
| 2026-04-25 09:42 | 54.96267 | 73.32031 | 297 ft | 6 kts | 107° |
| 2026-04-25 09:43 | 54.96281 | 73.32102 | 300 ft | 7 kts | 48° |
| 2026-04-25 09:43 | 54.96320 | 73.32155 | 299 ft | 8 kts | 36° |
| 2026-04-25 09:43 | 54.96374 | 73.32221 | 299 ft | 11 kts | 31° |
| 2026-04-25 09:43 | 54.96444 | 73.32246 | 298 ft | 10 kts | 25° |
| 2026-04-25 09:44 | 54.96479 | 73.32349 | 298 ft | 10 kts | 77° |
| 2026-04-25 09:44 | 54.96494 | 73.32465 | 299 ft | 10 kts | 77° |
| 2026-04-25 09:44 | 54.96509 | 73.32578 | 300 ft | 9 kts | 77° |
| 2026-04-25 09:44 | 54.96524 | 73.32688 | 299 ft | 9 kts | 77° |
| 2026-04-25 09:45 | 54.96538 | 73.32795 | 300 ft | 9 kts | 77° |
| 2026-04-25 09:45 | 54.96552 | 73.32900 | 298 ft | 9 kts | 77° |
| 2026-04-25 09:45 | 54.96574 | 73.33014 | 298 ft | 10 kts | 53° |
| 2026-04-25 09:45 | 54.96618 | 73.33045 | 299 ft | 11 kts | 360° |
| 2026-04-25 09:46 | 54.96694 | 73.33018 | 297 ft | 11 kts | 347° |
| 2026-04-25 09:46 | 54.96768 | 73.32988 | 299 ft | 11 kts | 347° |
| 2026-04-25 09:46 | 54.96849 | 73.32955 | 298 ft | 14 kts | 346° |
| 2026-04-25 09:46 | 54.96928 | 73.32922 | 299 ft | 10 kts | 346° |
| 2026-04-25 09:47 | 54.96948 | 73.32785 | 304 ft | 10 kts | 257° |
| 2026-04-25 09:47 | 54.96937 | 73.32704 | 306 ft | 11 kts | 257° |
| 2026-04-25 09:47 | 54.96865 | 73.32161 | 309 ft | 89 kts | 257° |
| 2026-04-25 09:47 | 54.96653 | 73.30673 | 399 ft | 153 kts | 252° |
| 2026-04-25 09:48 | 54.96404 | 73.28785 | 1242 ft | 167 kts | 253° |
| 2026-04-25 09:48 | 54.96138 | 73.26786 | 2206 ft | 173 kts | 252° |
| 2026-04-25 09:48 | 54.95844 | 73.24590 | 2674 ft | 202 kts | 253° |
| 2026-04-25 09:48 | 54.95501 | 73.22045 | 3160 ft | 223 kts | 253° |
| 2026-04-25 09:49 | 54.95138 | 73.19342 | 3823 ft | 242 kts | 253° |
| 2026-04-25 09:49 | 54.94753 | 73.16467 | 4859 ft | 245 kts | 253° |
| 2026-04-25 09:49 | 54.94363 | 73.13566 | 5888 ft | 248 kts | 253° |
| 2026-04-25 09:49 | 54.93966 | 73.10626 | 6881 ft | 251 kts | 253° |
| 2026-04-25 09:50 | 54.93562 | 73.07649 | 7842 ft | 254 kts | 254° |
| 2026-04-25 09:50 | 54.93116 | 73.04648 | 8815 ft | 257 kts | 246° |
| 2026-04-25 09:50 | 54.92107 | 73.02111 | 9772 ft | 259 kts | 223° |
| 2026-04-25 09:50 | 54.90563 | 73.00368 | 10396 ft | 278 kts | 204° |
| 2026-04-25 09:51 | 54.88589 | 72.99462 | 10655 ft | 307 kts | 195° |
| 2026-04-25 09:51 | 54.86442 | 72.98765 | 11298 ft | 318 kts | 193° |
| 2026-04-25 09:51 | 54.84244 | 72.98098 | 12167 ft | 322 kts | 193° |
| 2026-04-25 09:51 | 54.82028 | 72.97420 | 13053 ft | 326 kts | 194° |
| 2026-04-25 09:52 | 54.79780 | 72.96716 | 13883 ft | 330 kts | 194° |
| 2026-04-25 09:52 | 54.77506 | 72.95988 | 14647 ft | 334 kts | 194° |
| 2026-04-25 09:52 | 54.75210 | 72.95245 | 15465 ft | 337 kts | 194° |
| 2026-04-25 09:52 | 54.72896 | 72.94492 | 16276 ft | 339 kts | 194° |
| 2026-04-25 09:53 | 54.70562 | 72.93731 | 17050 ft | 343 kts | 194° |
| 2026-04-25 09:53 | 54.68202 | 72.92959 | 17806 ft | 347 kts | 194° |
| 2026-04-25 09:53 | 54.65813 | 72.92179 | 18518 ft | 351 kts | 194° |
| 2026-04-25 09:53 | 54.63394 | 72.91390 | 19154 ft | 355 kts | 194° |
| 2026-04-25 09:54 | 54.60997 | 72.90339 | 19754 ft | 356 kts | 205° |
| 2026-04-25 09:54 | 54.58859 | 72.88280 | 20395 ft | 357 kts | 214° |
| 2026-04-25 09:54 | 54.56741 | 72.85907 | 21026 ft | 361 kts | 215° |
| 2026-04-25 09:54 | 54.54661 | 72.83530 | 21607 ft | 365 kts | 215° |
| 2026-04-25 09:55 | 54.52532 | 72.81099 | 22197 ft | 370 kts | 215° |
| 2026-04-25 09:55 | 54.50370 | 72.78649 | 22790 ft | 374 kts | 215° |
| 2026-04-25 09:55 | 54.48183 | 72.76190 | 23362 ft | 378 kts | 215° |
| 2026-04-25 09:55 | 54.45968 | 72.73713 | 23868 ft | 381 kts | 214° |
| 2026-04-25 09:56 | 54.43707 | 72.71196 | 24416 ft | 382 kts | 214° |
| 2026-04-25 09:56 | 54.41506 | 72.68753 | 24972 ft | 383 kts | 214° |
| 2026-04-25 09:56 | 54.39259 | 72.66263 | 25484 ft | 385 kts | 214° |
| 2026-04-25 09:56 | 54.36999 | 72.63764 | 25988 ft | 387 kts | 214° |
| 2026-04-25 09:57 | 54.34728 | 72.61254 | 26468 ft | 389 kts | 214° |
| 2026-04-25 09:57 | 54.32447 | 72.58737 | 26970 ft | 391 kts | 214° |
| 2026-04-25 09:57 | 54.30153 | 72.56209 | 27435 ft | 393 kts | 214° |
| 2026-04-25 09:57 | 54.27849 | 72.53673 | 27877 ft | 395 kts | 214° |
| 2026-04-25 09:58 | 54.25532 | 72.51126 | 28355 ft | 396 kts | 214° |
| 2026-04-25 09:58 | 54.23218 | 72.48585 | 28973 ft | 394 kts | 214° |
| 2026-04-25 09:58 | 54.20922 | 72.46069 | 29684 ft | 389 kts | 214° |
| 2026-04-25 09:58 | 54.18654 | 72.43587 | 30282 ft | 386 kts | 214° |
| 2026-04-25 09:59 | 54.16290 | 72.41413 | 30750 ft | 387 kts | 206° |
| 2026-04-25 09:59 | 54.13756 | 72.39805 | 31199 ft | 390 kts | 199° |
| 2026-04-25 09:59 | 54.11096 | 72.38815 | 31655 ft | 391 kts | 195° |
| 2026-04-25 09:59 | 54.08425 | 72.37957 | 32119 ft | 391 kts | 195° |
| 2026-04-25 10:00 | 54.05754 | 72.37112 | 32550 ft | 390 kts | 195° |
| 2026-04-25 10:00 | 54.03087 | 72.36263 | 33002 ft | 389 kts | 195° |
| 2026-04-25 10:00 | 54.00433 | 72.35411 | 33451 ft | 388 kts | 196° |
| 2026-04-25 10:00 | 53.97788 | 72.34552 | 33870 ft | 387 kts | 196° |
| 2026-04-25 10:01 | 53.95144 | 72.33689 | 34192 ft | 387 kts | 196° |
| 2026-04-25 10:01 | 53.92489 | 72.32820 | 34481 ft | 389 kts | 196° |
| 2026-04-25 10:01 | 53.89836 | 72.31951 | 34776 ft | 389 kts | 196° |
| 2026-04-25 10:01 | 53.87160 | 72.31074 | 34837 ft | 394 kts | 196° |
| 2026-04-25 10:02 | 53.81763 | 72.29313 | 34858 ft | 393 kts | 196° |
| 2026-04-25 10:02 | 53.76450 | 72.27589 | 34856 ft | 387 kts | 196° |
| 2026-04-25 10:03 | 53.71145 | 72.25863 | 34866 ft | 389 kts | 196° |
| 2026-04-25 10:03 | 53.65823 | 72.24138 | 34868 ft | 390 kts | 196° |
| 2026-04-25 10:04 | 53.60471 | 72.22429 | 34865 ft | 392 kts | 195° |
| 2026-04-25 10:04 | 53.55136 | 72.20781 | 34867 ft | 393 kts | 195° |
| 2026-04-25 10:05 | 53.49757 | 72.19126 | 34869 ft | 393 kts | 196° |
| 2026-04-25 10:05 | 53.44384 | 72.17473 | 34869 ft | 392 kts | 196° |
| 2026-04-25 10:06 | 53.39016 | 72.15823 | 34874 ft | 391 kts | 196° |
| 2026-04-25 10:06 | 53.33667 | 72.14182 | 34877 ft | 390 kts | 196° |
| 2026-04-25 10:07 | 53.28327 | 72.12547 | 34878 ft | 389 kts | 196° |
| 2026-04-25 10:07 | 53.23000 | 72.10920 | 34885 ft | 389 kts | 196° |
| 2026-04-25 10:08 | 53.17684 | 72.09300 | 34884 ft | 388 kts | 196° |
| 2026-04-25 10:08 | 53.12372 | 72.07686 | 34889 ft | 388 kts | 196° |
| 2026-04-25 10:09 | 53.07062 | 72.06076 | 34895 ft | 388 kts | 196° |
| 2026-04-25 10:09 | 53.01743 | 72.04467 | 34894 ft | 388 kts | 196° |
| 2026-04-25 10:10 | 52.96410 | 72.02863 | 34521 ft | 386 kts | 196° |
| 2026-04-25 10:10 | 52.93789 | 72.02082 | 34127 ft | 381 kts | 197° |
| 2026-04-25 10:10 | 52.91179 | 72.01302 | 33763 ft | 377 kts | 197° |
| 2026-04-25 10:11 | 52.88615 | 72.00536 | 33316 ft | 374 kts | 197° |
| 2026-04-25 10:11 | 52.86067 | 71.99775 | 32953 ft | 369 kts | 196° |
| 2026-04-25 10:11 | 52.83552 | 71.99024 | 32561 ft | 366 kts | 196° |
| 2026-04-25 10:11 | 52.81057 | 71.98279 | 32177 ft | 362 kts | 196° |
| 2026-04-25 10:12 | 52.78585 | 71.97541 | 31788 ft | 360 kts | 196° |
| 2026-04-25 10:12 | 52.76134 | 71.96811 | 31431 ft | 356 kts | 196° |
| 2026-04-25 10:12 | 52.71288 | 71.95369 | 30700 ft | 351 kts | 195° |
| 2026-04-25 10:13 | 52.68891 | 71.94657 | 30344 ft | 349 kts | 195° |
| 2026-04-25 10:13 | 52.66511 | 71.93952 | 29984 ft | 347 kts | 195° |
| 2026-04-25 10:13 | 52.64142 | 71.93245 | 29582 ft | 344 kts | 195° |
| 2026-04-25 10:13 | 52.61797 | 71.92497 | 29152 ft | 342 kts | 196° |
| 2026-04-25 10:14 | 52.59478 | 71.91733 | 28774 ft | 338 kts | 196° |
| 2026-04-25 10:14 | 52.57183 | 71.90972 | 28393 ft | 335 kts | 196° |
| 2026-04-25 10:14 | 52.54904 | 71.90218 | 28037 ft | 332 kts | 196° |
| 2026-04-25 10:14 | 52.52650 | 71.89474 | 27665 ft | 329 kts | 196° |
| 2026-04-25 10:15 | 52.50411 | 71.88738 | 27303 ft | 327 kts | 196° |
| 2026-04-25 10:15 | 52.48189 | 71.88009 | 26946 ft | 324 kts | 196° |
| 2026-04-25 10:15 | 52.46009 | 71.87297 | 26598 ft | 322 kts | 196° |
| 2026-04-25 10:15 | 52.43790 | 71.86573 | 26238 ft | 320 kts | 196° |
| 2026-04-25 10:16 | 52.41638 | 71.85871 | 25894 ft | 318 kts | 196° |
| 2026-04-25 10:16 | 52.39445 | 71.85157 | 25548 ft | 317 kts | 196° |
| 2026-04-25 10:16 | 52.37317 | 71.84465 | 25211 ft | 315 kts | 195° |
| 2026-04-25 10:16 | 52.35169 | 71.83766 | 24874 ft | 314 kts | 195° |
| 2026-04-25 10:17 | 52.33029 | 71.83072 | 24518 ft | 313 kts | 195° |
| 2026-04-25 10:17 | 52.30896 | 71.82380 | 24173 ft | 312 kts | 195° |
| 2026-04-25 10:17 | 52.28742 | 71.81786 | 23620 ft | 320 kts | 191° |
| 2026-04-25 10:17 | 52.26492 | 71.81424 | 22962 ft | 328 kts | 189° |
| 2026-04-25 10:18 | 52.24220 | 71.81148 | 22544 ft | 326 kts | 188° |
| 2026-04-25 10:18 | 52.21972 | 71.80891 | 22202 ft | 323 kts | 188° |
| 2026-04-25 10:18 | 52.19739 | 71.80630 | 21840 ft | 320 kts | 189° |
| 2026-04-25 10:18 | 52.17524 | 71.80360 | 21461 ft | 318 kts | 189° |
| 2026-04-25 10:19 | 52.15325 | 71.80082 | 21092 ft | 316 kts | 189° |
| 2026-04-25 10:19 | 52.13140 | 71.79799 | 20739 ft | 314 kts | 189° |
| 2026-04-25 10:19 | 52.10973 | 71.79514 | 20346 ft | 312 kts | 189° |
| 2026-04-25 10:19 | 52.08818 | 71.79228 | 19940 ft | 308 kts | 189° |
| 2026-04-25 10:20 | 52.06688 | 71.78945 | 19467 ft | 306 kts | 189° |
| 2026-04-25 10:20 | 52.04565 | 71.78660 | 19000 ft | 306 kts | 189° |
| 2026-04-25 10:20 | 52.02457 | 71.78377 | 18595 ft | 302 kts | 189° |
| 2026-04-25 10:20 | 52.00373 | 71.78098 | 18143 ft | 300 kts | 189° |
| 2026-04-25 10:21 | 51.98294 | 71.77819 | 17631 ft | 298 kts | 189° |
| 2026-04-25 10:21 | 51.96234 | 71.77543 | 17144 ft | 296 kts | 189° |
| 2026-04-25 10:21 | 51.94187 | 71.77268 | 16659 ft | 294 kts | 189° |
| 2026-04-25 10:21 | 51.92153 | 71.76996 | 16188 ft | 292 kts | 189° |
| 2026-04-25 10:22 | 51.90161 | 71.76729 | 15732 ft | 290 kts | 189° |
| 2026-04-25 10:22 | 51.88804 | 71.76548 | 15424 ft | 289 kts | 189° |
| 2026-04-25 10:22 | 51.86126 | 71.76189 | 14900 ft | 289 kts | 189° |
| 2026-04-25 10:22 | 51.84158 | 71.75926 | 14571 ft | 287 kts | 189° |
| 2026-04-25 10:23 | 51.82170 | 71.75660 | 14237 ft | 286 kts | 189° |
| 2026-04-25 10:23 | 51.80188 | 71.75396 | 13918 ft | 285 kts | 189° |
| 2026-04-25 10:23 | 51.78220 | 71.75134 | 13578 ft | 283 kts | 189° |
| 2026-04-25 10:23 | 51.76256 | 71.74873 | 13238 ft | 282 kts | 189° |
| 2026-04-25 10:24 | 51.74306 | 71.74614 | 12893 ft | 280 kts | 189° |
| 2026-04-25 10:24 | 51.72371 | 71.74357 | 12568 ft | 278 kts | 188° |
| 2026-04-25 10:24 | 51.70450 | 71.74102 | 12250 ft | 276 kts | 188° |
| 2026-04-25 10:24 | 51.68541 | 71.73849 | 11932 ft | 274 kts | 188° |
| 2026-04-25 10:25 | 51.66645 | 71.73598 | 11620 ft | 273 kts | 188° |
| 2026-04-25 10:25 | 51.64758 | 71.73348 | 11308 ft | 271 kts | 188° |
| 2026-04-25 10:25 | 51.62880 | 71.73100 | 11004 ft | 270 kts | 188° |
| 2026-04-25 10:25 | 51.61012 | 71.72853 | 10687 ft | 269 kts | 188° |
| 2026-04-25 10:26 | 51.59147 | 71.72606 | 10395 ft | 268 kts | 188° |
| 2026-04-25 10:26 | 51.57291 | 71.72361 | 10134 ft | 265 kts | 188° |
| 2026-04-25 10:26 | 51.55492 | 71.72126 | 9991 ft | 256 kts | 188° |
| 2026-04-25 10:26 | 51.53712 | 71.71892 | 9672 ft | 257 kts | 188° |
| 2026-04-25 10:27 | 51.51938 | 71.71658 | 9377 ft | 255 kts | 188° |
| 2026-04-25 10:27 | 51.50170 | 71.71425 | 9078 ft | 254 kts | 188° |
| 2026-04-25 10:27 | 51.48414 | 71.71194 | 8795 ft | 253 kts | 188° |
| 2026-04-25 10:27 | 51.46666 | 71.70964 | 8508 ft | 252 kts | 188° |
| 2026-04-25 10:28 | 51.44950 | 71.70739 | 8236 ft | 250 kts | 188° |
| 2026-04-25 10:28 | 51.43219 | 71.70512 | 7953 ft | 249 kts | 188° |
| 2026-04-25 10:28 | 51.41502 | 71.70287 | 7686 ft | 246 kts | 187° |
| 2026-04-25 10:28 | 51.39801 | 71.70065 | 7419 ft | 244 kts | 187° |
| 2026-04-25 10:29 | 51.38114 | 71.69845 | 7145 ft | 243 kts | 188° |
| 2026-04-25 10:29 | 51.36437 | 71.69626 | 6887 ft | 241 kts | 188° |
| 2026-04-25 10:29 | 51.34766 | 71.69408 | 6617 ft | 241 kts | 188° |
| 2026-04-25 10:29 | 51.33101 | 71.69189 | 6358 ft | 239 kts | 188° |
| 2026-04-25 10:30 | 51.31471 | 71.68978 | 6258 ft | 231 kts | 188° |
| 2026-04-25 10:30 | 51.30420 | 71.68843 | 6163 ft | 226 kts | 188° |
| 2026-04-25 10:30 | 51.28378 | 71.68577 | 6030 ft | 215 kts | 188° |
| 2026-04-25 10:30 | 51.26916 | 71.68389 | 5946 ft | 207 kts | 188° |
| 2026-04-25 10:31 | 51.25510 | 71.68206 | 5855 ft | 199 kts | 188° |
| 2026-04-25 10:31 | 51.24174 | 71.68031 | 5808 ft | 187 kts | 188° |
| 2026-04-25 10:31 | 51.22864 | 71.67861 | 5608 ft | 190 kts | 188° |
| 2026-04-25 10:31 | 51.21558 | 71.67689 | 5426 ft | 187 kts | 188° |
| 2026-04-25 10:32 | 51.20266 | 71.67519 | 5203 ft | 186 kts | 188° |
| 2026-04-25 10:32 | 51.18983 | 71.67350 | 5000 ft | 186 kts | 188° |
| 2026-04-25 10:32 | 51.17698 | 71.67186 | 4773 ft | 184 kts | 189° |
| 2026-04-25 10:32 | 51.16427 | 71.67023 | 4568 ft | 183 kts | 188° |
| 2026-04-25 10:33 | 51.15188 | 71.66723 | 4330 ft | 178 kts | 208° |
| 2026-04-25 10:33 | 51.14564 | 71.65927 | 4213 ft | 172 kts | 228° |
| 2026-04-25 10:33 | 51.13747 | 71.64562 | 4026 ft | 168 kts | 225° |
| 2026-04-25 10:33 | 51.12913 | 71.63247 | 3798 ft | 168 kts | 225° |
| 2026-04-25 10:34 | 51.12119 | 71.62007 | 3572 ft | 165 kts | 225° |
| 2026-04-25 10:34 | 51.11312 | 71.60750 | 3371 ft | 159 kts | 225° |
| 2026-04-25 10:34 | 51.10540 | 71.59543 | 3145 ft | 151 kts | 225° |
| 2026-04-25 10:34 | 51.09817 | 71.58417 | 2945 ft | 142 kts | 225° |
| 2026-04-25 10:35 | 51.09124 | 71.57356 | 2773 ft | 137 kts | 223° |
| 2026-04-25 10:35 | 51.08446 | 71.56302 | 2574 ft | 132 kts | 224° |
| 2026-04-25 10:35 | 51.07792 | 71.55275 | 2461 ft | 136 kts | 225° |
| 2026-04-25 10:35 | 51.07134 | 71.54237 | 2327 ft | 132 kts | 224° |
| 2026-04-25 10:36 | 51.06474 | 71.53208 | 2068 ft | 133 kts | 224° |
| 2026-04-25 10:36 | 51.05818 | 71.52189 | 1871 ft | 131 kts | 225° |
| 2026-04-25 10:36 | 51.05162 | 71.51166 | 1677 ft | 134 kts | 225° |
| 2026-04-25 10:36 | 51.04476 | 71.50101 | 1519 ft | 142 kts | 225° |
| 2026-04-25 10:37 | 51.03759 | 71.48964 | 1341 ft | 149 kts | 224° |
| 2026-04-25 10:37 | 51.03020 | 71.47812 | 1175 ft | 147 kts | 224° |
| 2026-04-25 10:37 | 51.02354 | 71.46778 | 1169 ft | 118 kts | 225° |
| 2026-04-25 10:37 | 51.01876 | 71.46029 | 1172 ft | 70 kts | 224° |
| 2026-04-25 10:38 | 51.01620 | 71.45629 | 1172 ft | 42 kts | 224° |
| 2026-04-25 10:38 | 51.01426 | 71.45330 | 1173 ft | 33 kts | 224° |
| 2026-04-25 10:38 | 51.01273 | 71.45091 | 1175 ft | 25 kts | 224° |
| 2026-04-25 10:38 | 51.01171 | 71.44896 | 1174 ft | 22 kts | 257° |
| 2026-04-25 10:39 | 51.01216 | 71.44766 | 1172 ft | 13 kts | 312° |
| 2026-04-25 10:39 | 51.01261 | 71.44697 | 1172 ft | 7 kts | 330° |
| 2026-04-25 10:39 | 51.01309 | 71.44690 | 1169 ft | 7 kts | 18° |
| 2026-04-25 10:39 | 51.01346 | 71.44738 | 1173 ft | 8 kts | 46° |
| 2026-04-25 10:40 | 51.01386 | 71.44805 | 1173 ft | 9 kts | 45° |
| 2026-04-25 10:40 | 51.01439 | 71.44888 | 1173 ft | 12 kts | 45° |
| 2026-04-25 10:40 | 51.01507 | 71.44996 | 1172 ft | 15 kts | 43° |
| 2026-04-25 10:40 | 51.01590 | 71.45122 | 1171 ft | 15 kts | 44° |
| 2026-04-25 10:41 | 51.01661 | 71.45233 | 1172 ft | 15 kts | 44° |
| 2026-04-25 10:41 | 51.01730 | 71.45340 | 1172 ft | 14 kts | 44° |
| 2026-04-25 10:41 | 51.01799 | 71.45448 | 1171 ft | 13 kts | 45° |
| 2026-04-25 10:41 | 51.01864 | 71.45548 | 1169 ft | 13 kts | 44° |
| 2026-04-25 10:42 | 51.01930 | 71.45650 | 1170 ft | 14 kts | 44° |
| 2026-04-25 10:42 | 51.02001 | 71.45761 | 1169 ft | 15 kts | 44° |
| 2026-04-25 10:42 | 51.02079 | 71.45881 | 1169 ft | 16 kts | 44° |
| 2026-04-25 10:42 | 51.02158 | 71.46005 | 1167 ft | 15 kts | 44° |
| 2026-04-25 10:43 | 51.02230 | 71.46118 | 1170 ft | 14 kts | 44° |
| 2026-04-25 10:43 | 51.02293 | 71.46216 | 1168 ft | 11 kts | 44° |
| 2026-04-25 10:43 | 51.02362 | 71.46220 | 1170 ft | 11 kts | 321° |
| 2026-04-25 10:43 | 51.02416 | 71.46130 | 1169 ft | 12 kts | 314° |
| 2026-04-25 10:44 | 51.02487 | 71.46099 | 1167 ft | 11 kts | 25° |
| 2026-04-25 10:44 | 51.02544 | 71.46185 | 1168 ft | 11 kts | 44° |
| 2026-04-25 10:44 | 51.02597 | 71.46267 | 1169 ft | 11 kts | 44° |
| 2026-04-25 10:44 | 51.02630 | 71.46372 | 1168 ft | 11 kts | 81° |
| 2026-04-25 10:45 | 51.02657 | 71.46478 | 1164 ft | 11 kts | 46° |
| 2026-04-25 10:45 | 51.02709 | 71.46562 | 1169 ft | 9 kts | 45° |
| 2026-04-25 10:45 | 51.02752 | 71.46629 | 1166 ft | 7 kts | 37° |
| 2026-04-25 10:45 | 51.02776 | 71.46634 | 1166 ft | 3 kts | 345° |
| 2026-04-25 10:46 | 51.02798 | 71.46608 | 1169 ft | 5 kts | 317° |
| 2026-04-25 10:46 | 51.02814 | 71.46583 | 1168 ft | 3 kts | 315° |
| 2026-04-25 10:46 | 51.02817 | 71.46579 | 1168 ft | 0 kts | 315° |